sensor_id;sensor_type;location;lat;lon;timestamp;P1;durP1;ratioP1;P2;durP2;ratioP2
40154;SDS011;25875;48.202;16.334;2023-06-19T00:00:16;7.97;;;7.15;;
40154;SDS011;25875;48.202;16.334;2023-06-19T00:02:43;9.73;;;8.73;;
40154;SDS011;25875;48.202;16.334;2023-06-19T00:05:10;12.57;;;7.60;;
40154;SDS011;25875;48.202;16.334;2023-06-19T00:07:38;10.07;;;7.57;;
40154;SDS011;25875;48.202;16.334;2023-06-19T00:10:05;9.93;;;8.80;;
40154;SDS011;25875;48.202;16.334;2023-06-19T00:12:32;9.65;;;8.65;;
40154;SDS011;25875;48.202;16.334;2023-06-19T00:14:59;8.43;;;7.47;;
40154;SDS011;25875;48.202;16.334;2023-06-19T00:17:27;9.02;;;7.90;;
40154;SDS011;25875;48.202;16.334;2023-06-19T00:19:54;9.02;;;7.30;;
40154;SDS011;25875;48.202;16.334;2023-06-19T00:22:20;8.32;;;7.05;;
40154;SDS011;25875;48.202;16.334;2023-06-19T00:24:48;9.13;;;7.30;;
40154;SDS011;25875;48.202;16.334;2023-06-19T00:27:17;8.20;;;7.40;;
40154;SDS011;25875;48.202;16.334;2023-06-19T00:29:44;8.18;;;7.38;;
40154;SDS011;25875;48.202;16.334;2023-06-19T00:32:10;8.38;;;7.57;;
40154;SDS011;25875;48.202;16.334;2023-06-19T00:34:37;8.52;;;7.20;;
40154;SDS011;25875;48.202;16.334;2023-06-19T00:37:04;9.00;;;7.43;;
40154;SDS011;25875;48.202;16.334;2023-06-19T00:39:31;8.82;;;7.53;;
40154;SDS011;25875;48.202;16.334;2023-06-19T00:41:59;10.93;;;7.97;;
40154;SDS011;25875;48.202;16.334;2023-06-19T00:44:26;10.65;;;7.10;;
40154;SDS011;25875;48.202;16.334;2023-06-19T00:46:55;9.55;;;8.65;;
40154;SDS011;25875;48.202;16.334;2023-06-19T00:49:24;8.75;;;7.85;;
40154;SDS011;25875;48.202;16.334;2023-06-19T00:51:51;10.02;;;8.27;;
40154;SDS011;25875;48.202;16.334;2023-06-19T00:54:18;9.07;;;7.45;;
40154;SDS011;25875;48.202;16.334;2023-06-19T00:56:45;8.27;;;7.40;;
40154;SDS011;25875;48.202;16.334;2023-06-19T00:59:14;9.80;;;8.38;;
40154;SDS011;25875;48.202;16.334;2023-06-19T01:01:42;9.40;;;8.35;;
40154;SDS011;25875;48.202;16.334;2023-06-19T01:04:09;8.25;;;7.43;;
40154;SDS011;25875;48.202;16.334;2023-06-19T01:06:38;9.40;;;7.72;;
40154;SDS011;25875;48.202;16.334;2023-06-19T01:09:11;13.45;;;8.52;;
40154;SDS011;25875;48.202;16.334;2023-06-19T01:11:42;8.05;;;7.25;;
40154;SDS011;25875;48.202;16.334;2023-06-19T01:14:13;8.77;;;7.88;;
40154;SDS011;25875;48.202;16.334;2023-06-19T01:16:45;9.27;;;8.05;;
40154;SDS011;25875;48.202;16.334;2023-06-19T01:19:16;11.38;;;7.95;;
40154;SDS011;25875;48.202;16.334;2023-06-19T01:21:46;8.52;;;7.45;;
40154;SDS011;25875;48.202;16.334;2023-06-19T01:24:14;8.02;;;7.22;;
40154;SDS011;25875;48.202;16.334;2023-06-19T01:26:41;8.05;;;7.22;;
40154;SDS011;25875;48.202;16.334;2023-06-19T01:29:10;10.52;;;8.27;;
40154;SDS011;25875;48.202;16.334;2023-06-19T01:31:41;9.18;;;8.20;;
40154;SDS011;25875;48.202;16.334;2023-06-19T01:34:12;9.30;;;8.38;;
40154;SDS011;25875;48.202;16.334;2023-06-19T01:36:42;9.27;;;8.27;;
40154;SDS011;25875;48.202;16.334;2023-06-19T01:39:09;8.60;;;7.70;;
40154;SDS011;25875;48.202;16.334;2023-06-19T01:41:40;8.07;;;7.32;;
40154;SDS011;25875;48.202;16.334;2023-06-19T01:44:08;9.40;;;7.78;;
40154;SDS011;25875;48.202;16.334;2023-06-19T01:46:35;8.90;;;8.00;;
40154;SDS011;25875;48.202;16.334;2023-06-19T01:49:05;8.88;;;7.22;;
40154;SDS011;25875;48.202;16.334;2023-06-19T01:51:33;11.50;;;8.18;;
40154;SDS011;25875;48.202;16.334;2023-06-19T01:53:59;9.38;;;7.90;;
40154;SDS011;25875;48.202;16.334;2023-06-19T01:56:26;9.65;;;8.05;;
40154;SDS011;25875;48.202;16.334;2023-06-19T01:58:55;9.00;;;7.63;;
40154;SDS011;25875;48.202;16.334;2023-06-19T02:01:22;9.07;;;8.23;;
40154;SDS011;25875;48.202;16.334;2023-06-19T02:03:48;9.50;;;8.18;;
40154;SDS011;25875;48.202;16.334;2023-06-19T02:06:15;9.05;;;7.18;;
40154;SDS011;25875;48.202;16.334;2023-06-19T02:08:42;9.00;;;7.90;;
40154;SDS011;25875;48.202;16.334;2023-06-19T02:11:08;8.38;;;7.35;;
40154;SDS011;25875;48.202;16.334;2023-06-19T02:13:35;8.50;;;7.70;;
40154;SDS011;25875;48.202;16.334;2023-06-19T02:16:04;8.90;;;7.03;;
40154;SDS011;25875;48.202;16.334;2023-06-19T02:18:30;7.43;;;6.72;;
40154;SDS011;25875;48.202;16.334;2023-06-19T02:20:57;7.90;;;7.10;;
40154;SDS011;25875;48.202;16.334;2023-06-19T02:23:24;8.95;;;8.05;;
40154;SDS011;25875;48.202;16.334;2023-06-19T02:25:51;9.02;;;7.25;;
40154;SDS011;25875;48.202;16.334;2023-06-19T02:28:17;7.55;;;6.85;;
40154;SDS011;25875;48.202;16.334;2023-06-19T02:30:45;7.72;;;6.93;;
40154;SDS011;25875;48.202;16.334;2023-06-19T02:33:13;8.45;;;7.57;;
40154;SDS011;25875;48.202;16.334;2023-06-19T02:35:40;7.72;;;7.00;;
40154;SDS011;25875;48.202;16.334;2023-06-19T02:38:06;9.10;;;8.20;;
40154;SDS011;25875;48.202;16.334;2023-06-19T02:40:34;9.18;;;8.27;;
40154;SDS011;25875;48.202;16.334;2023-06-19T02:43:00;8.57;;;7.75;;
40154;SDS011;25875;48.202;16.334;2023-06-19T02:45:27;8.32;;;7.47;;
40154;SDS011;25875;48.202;16.334;2023-06-19T02:47:54;8.60;;;7.38;;
40154;SDS011;25875;48.202;16.334;2023-06-19T02:50:22;9.10;;;7.80;;
40154;SDS011;25875;48.202;16.334;2023-06-19T02:52:49;7.65;;;6.85;;
40154;SDS011;25875;48.202;16.334;2023-06-19T02:55:15;8.90;;;8.00;;
40154;SDS011;25875;48.202;16.334;2023-06-19T02:57:42;9.13;;;8.13;;
40154;SDS011;25875;48.202;16.334;2023-06-19T03:00:10;7.65;;;6.75;;
40154;SDS011;25875;48.202;16.334;2023-06-19T03:02:37;9.85;;;7.75;;
40154;SDS011;25875;48.202;16.334;2023-06-19T03:05:08;8.30;;;7.10;;
40154;SDS011;25875;48.202;16.334;2023-06-19T03:07:37;8.48;;;7.13;;
40154;SDS011;25875;48.202;16.334;2023-06-19T03:10:04;8.75;;;7.85;;
40154;SDS011;25875;48.202;16.334;2023-06-19T03:12:31;11.93;;;8.30;;
40154;SDS011;25875;48.202;16.334;2023-06-19T03:14:58;10.15;;;8.43;;
40154;SDS011;25875;48.202;16.334;2023-06-19T03:17:24;9.30;;;8.23;;
40154;SDS011;25875;48.202;16.334;2023-06-19T03:19:51;10.05;;;7.97;;
40154;SDS011;25875;48.202;16.334;2023-06-19T03:22:19;9.25;;;8.02;;
40154;SDS011;25875;48.202;16.334;2023-06-19T03:24:47;11.15;;;8.30;;
40154;SDS011;25875;48.202;16.334;2023-06-19T03:27:14;9.65;;;8.35;;
40154;SDS011;25875;48.202;16.334;2023-06-19T03:29:41;9.65;;;8.68;;
40154;SDS011;25875;48.202;16.334;2023-06-19T03:32:07;11.73;;;9.55;;
40154;SDS011;25875;48.202;16.334;2023-06-19T03:34:34;10.57;;;9.13;;
40154;SDS011;25875;48.202;16.334;2023-06-19T03:37:01;11.45;;;10.27;;
40154;SDS011;25875;48.202;16.334;2023-06-19T03:39:28;12.15;;;10.27;;
40154;SDS011;25875;48.202;16.334;2023-06-19T03:41:56;11.65;;;10.43;;
40154;SDS011;25875;48.202;16.334;2023-06-19T03:44:22;10.48;;;8.70;;
40154;SDS011;25875;48.202;16.334;2023-06-19T03:46:49;10.35;;;9.35;;
40154;SDS011;25875;48.202;16.334;2023-06-19T03:49:16;8.98;;;8.18;;
40154;SDS011;25875;48.202;16.334;2023-06-19T03:51:43;10.32;;;8.85;;
40154;SDS011;25875;48.202;16.334;2023-06-19T03:54:10;9.65;;;8.18;;
40154;SDS011;25875;48.202;16.334;2023-06-19T03:56:37;9.15;;;8.25;;
40154;SDS011;25875;48.202;16.334;2023-06-19T03:59:06;16.27;;;9.10;;
40154;SDS011;25875;48.202;16.334;2023-06-19T04:01:33;12.48;;;9.00;;
40154;SDS011;25875;48.202;16.334;2023-06-19T04:03:59;10.85;;;8.48;;
40154;SDS011;25875;48.202;16.334;2023-06-19T04:06:26;9.77;;;8.82;;
40154;SDS011;25875;48.202;16.334;2023-06-19T04:08:53;12.15;;;9.73;;
40154;SDS011;25875;48.202;16.334;2023-06-19T04:11:19;22.92;;;9.48;;
40154;SDS011;25875;48.202;16.334;2023-06-19T04:13:46;18.50;;;10.10;;
40154;SDS011;25875;48.202;16.334;2023-06-19T04:16:14;12.52;;;9.48;;
40154;SDS011;25875;48.202;16.334;2023-06-19T04:18:41;13.02;;;9.15;;
40154;SDS011;25875;48.202;16.334;2023-06-19T04:21:08;11.65;;;9.23;;
40154;SDS011;25875;48.202;16.334;2023-06-19T04:23:35;19.50;;;10.07;;
40154;SDS011;25875;48.202;16.334;2023-06-19T04:26:01;14.55;;;9.50;;
40154;SDS011;25875;48.202;16.334;2023-06-19T04:28:28;15.43;;;9.25;;
40154;SDS011;25875;48.202;16.334;2023-06-19T04:30:55;15.30;;;10.55;;
40154;SDS011;25875;48.202;16.334;2023-06-19T04:33:26;10.57;;;9.48;;
40154;SDS011;25875;48.202;16.334;2023-06-19T04:35:53;12.10;;;9.93;;
40154;SDS011;25875;48.202;16.334;2023-06-19T04:38:20;11.05;;;9.25;;
40154;SDS011;25875;48.202;16.334;2023-06-19T04:40:48;16.15;;;11.65;;
40154;SDS011;25875;48.202;16.334;2023-06-19T04:43:15;13.05;;;10.57;;
40154;SDS011;25875;48.202;16.334;2023-06-19T04:45:42;11.23;;;10.02;;
40154;SDS011;25875;48.202;16.334;2023-06-19T04:48:09;11.90;;;10.70;;
40154;SDS011;25875;48.202;16.334;2023-06-19T04:50:37;10.77;;;9.68;;
40154;SDS011;25875;48.202;16.334;2023-06-19T04:53:04;14.38;;;11.05;;
40154;SDS011;25875;48.202;16.334;2023-06-19T04:55:31;11.70;;;10.45;;
40154;SDS011;25875;48.202;16.334;2023-06-19T04:57:58;12.30;;;11.00;;
40154;SDS011;25875;48.202;16.334;2023-06-19T05:00:25;13.90;;;11.77;;
40154;SDS011;25875;48.202;16.334;2023-06-19T05:02:51;11.80;;;9.98;;
40154;SDS011;25875;48.202;16.334;2023-06-19T05:05:18;11.45;;;10.25;;
40154;SDS011;25875;48.202;16.334;2023-06-19T05:07:47;11.45;;;10.27;;
40154;SDS011;25875;48.202;16.334;2023-06-19T05:10:13;12.88;;;11.00;;
40154;SDS011;25875;48.202;16.334;2023-06-19T05:12:40;10.80;;;9.65;;
40154;SDS011;25875;48.202;16.334;2023-06-19T05:15:07;11.63;;;10.43;;
40154;SDS011;25875;48.202;16.334;2023-06-19T05:17:35;11.73;;;10.30;;
40154;SDS011;25875;48.202;16.334;2023-06-19T05:20:04;12.23;;;10.73;;
40154;SDS011;25875;48.202;16.334;2023-06-19T05:22:33;12.18;;;9.77;;
40154;SDS011;25875;48.202;16.334;2023-06-19T05:25:01;11.07;;;9.90;;
40154;SDS011;25875;48.202;16.334;2023-06-19T05:27:28;13.43;;;11.23;;
40154;SDS011;25875;48.202;16.334;2023-06-19T05:29:54;13.73;;;10.68;;
40154;SDS011;25875;48.202;16.334;2023-06-19T05:32:21;13.13;;;10.77;;
40154;SDS011;25875;48.202;16.334;2023-06-19T05:34:48;12.77;;;10.63;;
40154;SDS011;25875;48.202;16.334;2023-06-19T05:37:15;11.43;;;9.60;;
40154;SDS011;25875;48.202;16.334;2023-06-19T05:39:42;12.05;;;10.55;;
40154;SDS011;25875;48.202;16.334;2023-06-19T05:42:10;11.05;;;9.93;;
40154;SDS011;25875;48.202;16.334;2023-06-19T05:44:37;15.63;;;10.55;;
40154;SDS011;25875;48.202;16.334;2023-06-19T05:47:05;15.63;;;10.68;;
40154;SDS011;25875;48.202;16.334;2023-06-19T05:49:32;10.48;;;9.38;;
40154;SDS011;25875;48.202;16.334;2023-06-19T05:51:59;13.10;;;10.77;;
40154;SDS011;25875;48.202;16.334;2023-06-19T05:54:26;10.65;;;9.65;;
40154;SDS011;25875;48.202;16.334;2023-06-19T05:56:53;11.60;;;10.40;;
40154;SDS011;25875;48.202;16.334;2023-06-19T05:59:21;13.15;;;10.25;;
40154;SDS011;25875;48.202;16.334;2023-06-19T06:01:48;12.88;;;10.02;;
40154;SDS011;25875;48.202;16.334;2023-06-19T06:04:15;11.18;;;9.52;;
40154;SDS011;25875;48.202;16.334;2023-06-19T06:06:42;11.63;;;10.40;;
40154;SDS011;25875;48.202;16.334;2023-06-19T06:09:09;10.27;;;9.18;;
40154;SDS011;25875;48.202;16.334;2023-06-19T06:11:37;11.07;;;9.57;;
40154;SDS011;25875;48.202;16.334;2023-06-19T06:14:04;10.68;;;9.45;;
40154;SDS011;25875;48.202;16.334;2023-06-19T06:16:32;10.90;;;9.90;;
40154;SDS011;25875;48.202;16.334;2023-06-19T06:18:58;12.73;;;8.60;;
40154;SDS011;25875;48.202;16.334;2023-06-19T06:21:25;11.07;;;9.70;;
40154;SDS011;25875;48.202;16.334;2023-06-19T06:23:52;12.13;;;10.23;;
40154;SDS011;25875;48.202;16.334;2023-06-19T06:26:19;13.15;;;9.93;;
40154;SDS011;25875;48.202;16.334;2023-06-19T06:28:46;10.48;;;8.63;;
40154;SDS011;25875;48.202;16.334;2023-06-19T06:31:13;10.02;;;9.02;;
40154;SDS011;25875;48.202;16.334;2023-06-19T06:33:42;8.73;;;7.57;;
40154;SDS011;25875;48.202;16.334;2023-06-19T06:36:08;9.60;;;7.85;;
40154;SDS011;25875;48.202;16.334;2023-06-19T06:38:35;9.70;;;8.35;;
40154;SDS011;25875;48.202;16.334;2023-06-19T06:41:02;9.73;;;7.85;;
40154;SDS011;25875;48.202;16.334;2023-06-19T06:43:29;9.48;;;8.52;;
40154;SDS011;25875;48.202;16.334;2023-06-19T06:45:56;10.02;;;9.13;;
40154;SDS011;25875;48.202;16.334;2023-06-19T06:48:22;9.57;;;8.63;;
40154;SDS011;25875;48.202;16.334;2023-06-19T06:50:50;10.48;;;8.90;;
40154;SDS011;25875;48.202;16.334;2023-06-19T06:53:24;11.15;;;8.85;;
40154;SDS011;25875;48.202;16.334;2023-06-19T06:55:50;10.20;;;8.40;;
40154;SDS011;25875;48.202;16.334;2023-06-19T06:58:17;11.48;;;7.88;;
40154;SDS011;25875;48.202;16.334;2023-06-19T07:00:44;8.20;;;6.72;;
40154;SDS011;25875;48.202;16.334;2023-06-19T07:03:11;11.05;;;8.52;;
40154;SDS011;25875;48.202;16.334;2023-06-19T07:05:38;10.95;;;7.88;;
40154;SDS011;25875;48.202;16.334;2023-06-19T07:08:06;16.17;;;8.75;;
40154;SDS011;25875;48.202;16.334;2023-06-19T07:10:33;8.27;;;7.20;;
40154;SDS011;25875;48.202;16.334;2023-06-19T07:12:59;9.43;;;7.90;;
40154;SDS011;25875;48.202;16.334;2023-06-19T07:15:26;8.80;;;7.78;;
40154;SDS011;25875;48.202;16.334;2023-06-19T07:17:53;8.43;;;7.15;;
40154;SDS011;25875;48.202;16.334;2023-06-19T07:20:20;9.45;;;8.10;;
40154;SDS011;25875;48.202;16.334;2023-06-19T07:22:46;8.70;;;7.80;;
40154;SDS011;25875;48.202;16.334;2023-06-19T07:25:15;8.95;;;8.05;;
40154;SDS011;25875;48.202;16.334;2023-06-19T07:27:42;10.77;;;7.57;;
40154;SDS011;25875;48.202;16.334;2023-06-19T07:30:09;11.30;;;7.53;;
40154;SDS011;25875;48.202;16.334;2023-06-19T07:32:37;8.55;;;7.70;;
40154;SDS011;25875;48.202;16.334;2023-06-19T07:35:04;7.75;;;6.97;;
40154;SDS011;25875;48.202;16.334;2023-06-19T07:37:32;14.75;;;7.85;;
40154;SDS011;25875;48.202;16.334;2023-06-19T07:39:59;7.95;;;7.22;;
40154;SDS011;25875;48.202;16.334;2023-06-19T07:42:27;9.68;;;7.88;;
40154;SDS011;25875;48.202;16.334;2023-06-19T07:44:54;11.30;;;8.00;;
40154;SDS011;25875;48.202;16.334;2023-06-19T07:47:21;8.10;;;7.20;;
40154;SDS011;25875;48.202;16.334;2023-06-19T07:49:47;9.30;;;7.45;;
40154;SDS011;25875;48.202;16.334;2023-06-19T07:52:14;8.32;;;7.43;;
40154;SDS011;25875;48.202;16.334;2023-06-19T07:54:47;10.45;;;7.90;;
40154;SDS011;25875;48.202;16.334;2023-06-19T07:57:16;9.50;;;7.32;;
40154;SDS011;25875;48.202;16.334;2023-06-19T07:59:44;8.45;;;7.43;;
40154;SDS011;25875;48.202;16.334;2023-06-19T08:02:12;10.10;;;6.97;;
40154;SDS011;25875;48.202;16.334;2023-06-19T08:04:38;8.35;;;7.35;;
40154;SDS011;25875;48.202;16.334;2023-06-19T08:07:05;11.10;;;8.43;;
40154;SDS011;25875;48.202;16.334;2023-06-19T08:09:32;8.90;;;7.60;;
40154;SDS011;25875;48.202;16.334;2023-06-19T08:12:00;7.97;;;6.85;;
40154;SDS011;25875;48.202;16.334;2023-06-19T08:14:27;8.35;;;7.45;;
40154;SDS011;25875;48.202;16.334;2023-06-19T08:16:55;8.60;;;7.53;;
40154;SDS011;25875;48.202;16.334;2023-06-19T08:19:22;9.80;;;7.88;;
40154;SDS011;25875;48.202;16.334;2023-06-19T08:21:48;7.40;;;6.70;;
40154;SDS011;25875;48.202;16.334;2023-06-19T08:24:15;8.82;;;6.70;;
40154;SDS011;25875;48.202;16.334;2023-06-19T08:26:42;11.48;;;7.82;;
40154;SDS011;25875;48.202;16.334;2023-06-19T08:29:09;8.40;;;6.93;;
40154;SDS011;25875;48.202;16.334;2023-06-19T08:31:35;10.35;;;7.25;;
40154;SDS011;25875;48.202;16.334;2023-06-19T08:34:03;9.23;;;7.20;;
40154;SDS011;25875;48.202;16.334;2023-06-19T08:36:34;9.63;;;8.00;;
40154;SDS011;25875;48.202;16.334;2023-06-19T08:39:01;12.95;;;7.90;;
40154;SDS011;25875;48.202;16.334;2023-06-19T08:41:28;12.18;;;8.63;;
40154;SDS011;25875;48.202;16.334;2023-06-19T08:43:55;12.18;;;8.63;;
40154;SDS011;25875;48.202;16.334;2023-06-19T08:46:23;9.52;;;8.48;;
40154;SDS011;25875;48.202;16.334;2023-06-19T08:48:49;14.13;;;9.13;;
40154;SDS011;25875;48.202;16.334;2023-06-19T08:51:18;9.95;;;8.95;;
40154;SDS011;25875;48.202;16.334;2023-06-19T08:53:45;12.82;;;9.63;;
40154;SDS011;25875;48.202;16.334;2023-06-19T08:56:13;11.55;;;9.98;;
40154;SDS011;25875;48.202;16.334;2023-06-19T08:58:39;11.27;;;9.07;;
40154;SDS011;25875;48.202;16.334;2023-06-19T09:01:06;9.85;;;8.35;;
40154;SDS011;25875;48.202;16.334;2023-06-19T09:03:33;16.30;;;8.93;;
40154;SDS011;25875;48.202;16.334;2023-06-19T09:06:02;9.60;;;8.55;;
40154;SDS011;25875;48.202;16.334;2023-06-19T09:08:31;10.85;;;9.85;;
40154;SDS011;25875;48.202;16.334;2023-06-19T09:10:58;12.85;;;9.23;;
40154;SDS011;25875;48.202;16.334;2023-06-19T09:13:26;9.57;;;8.68;;
40154;SDS011;25875;48.202;16.334;2023-06-19T09:15:57;10.23;;;8.68;;
40154;SDS011;25875;48.202;16.334;2023-06-19T09:18:27;11.13;;;8.70;;
40154;SDS011;25875;48.202;16.334;2023-06-19T09:20:55;9.95;;;8.68;;
40154;SDS011;25875;48.202;16.334;2023-06-19T09:23:22;9.57;;;8.00;;
40154;SDS011;25875;48.202;16.334;2023-06-19T09:25:51;10.60;;;7.60;;
40154;SDS011;25875;48.202;16.334;2023-06-19T09:28:20;8.32;;;7.38;;
40154;SDS011;25875;48.202;16.334;2023-06-19T09:30:51;10.80;;;7.80;;
40154;SDS011;25875;48.202;16.334;2023-06-19T09:33:22;8.23;;;7.43;;
40154;SDS011;25875;48.202;16.334;2023-06-19T09:35:50;14.02;;;8.27;;
40154;SDS011;25875;48.202;16.334;2023-06-19T09:38:17;8.00;;;7.28;;
40154;SDS011;25875;48.202;16.334;2023-06-19T09:40:44;14.40;;;8.90;;
40154;SDS011;25875;48.202;16.334;2023-06-19T09:43:14;9.38;;;8.25;;
40154;SDS011;25875;48.202;16.334;2023-06-19T09:45:45;11.93;;;7.60;;
40154;SDS011;25875;48.202;16.334;2023-06-19T09:48:14;8.68;;;7.03;;
40154;SDS011;25875;48.202;16.334;2023-06-19T09:50:44;8.07;;;7.25;;
40154;SDS011;25875;48.202;16.334;2023-06-19T09:53:12;10.02;;;6.90;;
40154;SDS011;25875;48.202;16.334;2023-06-19T09:55:39;9.48;;;7.55;;
40154;SDS011;25875;48.202;16.334;2023-06-19T09:58:06;7.57;;;6.85;;
40154;SDS011;25875;48.202;16.334;2023-06-19T10:00:34;8.15;;;7.35;;
40154;SDS011;25875;48.202;16.334;2023-06-19T10:03:02;7.80;;;7.00;;
40154;SDS011;25875;48.202;16.334;2023-06-19T10:05:31;8.93;;;6.93;;
40154;SDS011;25875;48.202;16.334;2023-06-19T10:07:58;8.27;;;7.47;;
40154;SDS011;25875;48.202;16.334;2023-06-19T10:10:26;10.07;;;8.07;;
40154;SDS011;25875;48.202;16.334;2023-06-19T10:12:55;9.95;;;6.90;;
40154;SDS011;25875;48.202;16.334;2023-06-19T10:15:23;8.00;;;7.20;;
40154;SDS011;25875;48.202;16.334;2023-06-19T10:17:53;8.30;;;7.35;;
40154;SDS011;25875;48.202;16.334;2023-06-19T10:20:27;11.30;;;7.70;;
40154;SDS011;25875;48.202;16.334;2023-06-19T10:23:00;7.18;;;6.47;;
40154;SDS011;25875;48.202;16.334;2023-06-19T10:25:30;8.60;;;6.45;;
40154;SDS011;25875;48.202;16.334;2023-06-19T10:27:59;10.57;;;6.85;;
40154;SDS011;25875;48.202;16.334;2023-06-19T10:30:26;9.48;;;7.18;;
40154;SDS011;25875;48.202;16.334;2023-06-19T10:32:56;8.18;;;6.75;;
40154;SDS011;25875;48.202;16.334;2023-06-19T10:35:24;8.05;;;6.88;;
40154;SDS011;25875;48.202;16.334;2023-06-19T10:37:51;9.20;;;8.35;;
40154;SDS011;25875;48.202;16.334;2023-06-19T10:40:18;9.50;;;7.10;;
40154;SDS011;25875;48.202;16.334;2023-06-19T10:42:44;7.78;;;6.88;;
40154;SDS011;25875;48.202;16.334;2023-06-19T10:45:12;8.77;;;7.03;;
40154;SDS011;25875;48.202;16.334;2023-06-19T10:47:41;9.60;;;7.13;;
40154;SDS011;25875;48.202;16.334;2023-06-19T10:50:13;8.73;;;7.38;;
40154;SDS011;25875;48.202;16.334;2023-06-19T10:52:41;7.47;;;6.75;;
40154;SDS011;25875;48.202;16.334;2023-06-19T10:55:09;8.25;;;6.75;;
40154;SDS011;25875;48.202;16.334;2023-06-19T10:57:37;9.35;;;7.65;;
40154;SDS011;25875;48.202;16.334;2023-06-19T11:00:04;7.65;;;6.82;;
40154;SDS011;25875;48.202;16.334;2023-06-19T11:02:40;8.18;;;6.65;;
40154;SDS011;25875;48.202;16.334;2023-06-19T11:05:09;7.57;;;6.78;;
40154;SDS011;25875;48.202;16.334;2023-06-19T11:07:38;10.10;;;6.90;;
40154;SDS011;25875;48.202;16.334;2023-06-19T11:10:05;7.53;;;6.72;;
40154;SDS011;25875;48.202;16.334;2023-06-19T11:12:33;14.55;;;7.35;;
40154;SDS011;25875;48.202;16.334;2023-06-19T11:15:02;13.48;;;8.10;;
40154;SDS011;25875;48.202;16.334;2023-06-19T11:17:29;7.07;;;6.38;;
40154;SDS011;25875;48.202;16.334;2023-06-19T11:19:56;8.30;;;6.93;;
40154;SDS011;25875;48.202;16.334;2023-06-19T11:22:34;8.40;;;6.10;;
40154;SDS011;25875;48.202;16.334;2023-06-19T11:25:04;7.00;;;6.15;;
40154;SDS011;25875;48.202;16.334;2023-06-19T11:27:32;8.60;;;6.22;;
40154;SDS011;25875;48.202;16.334;2023-06-19T11:30:00;8.82;;;6.10;;
40154;SDS011;25875;48.202;16.334;2023-06-19T11:32:30;8.23;;;6.50;;
40154;SDS011;25875;48.202;16.334;2023-06-19T11:34:57;8.38;;;6.13;;
40154;SDS011;25875;48.202;16.334;2023-06-19T11:37:33;6.97;;;5.75;;
40154;SDS011;25875;48.202;16.334;2023-06-19T11:40:00;9.60;;;6.70;;
40154;SDS011;25875;48.202;16.334;2023-06-19T11:42:31;7.53;;;5.95;;
40154;SDS011;25875;48.202;16.334;2023-06-19T11:44:59;6.07;;;5.47;;
40154;SDS011;25875;48.202;16.334;2023-06-19T11:47:29;6.20;;;5.15;;
40154;SDS011;25875;48.202;16.334;2023-06-19T11:49:56;7.97;;;5.70;;
40154;SDS011;25875;48.202;16.334;2023-06-19T11:52:23;6.13;;;5.00;;
40154;SDS011;25875;48.202;16.334;2023-06-19T11:54:50;7.65;;;5.85;;
40154;SDS011;25875;48.202;16.334;2023-06-19T11:57:16;7.18;;;5.40;;
40154;SDS011;25875;48.202;16.334;2023-06-19T11:59:45;7.63;;;6.35;;
40154;SDS011;25875;48.202;16.334;2023-06-19T12:02:12;6.70;;;6.00;;
40154;SDS011;25875;48.202;16.334;2023-06-19T12:04:38;15.30;;;6.78;;
40154;SDS011;25875;48.202;16.334;2023-06-19T12:07:05;8.20;;;6.63;;
40154;SDS011;25875;48.202;16.334;2023-06-19T12:09:33;7.32;;;6.00;;
40154;SDS011;25875;48.202;16.334;2023-06-19T12:12:00;6.80;;;5.45;;
40154;SDS011;25875;48.202;16.334;2023-06-19T12:14:27;6.95;;;6.10;;
40154;SDS011;25875;48.202;16.334;2023-06-19T12:16:55;6.45;;;5.85;;
40154;SDS011;25875;48.202;16.334;2023-06-19T12:19:22;7.35;;;6.35;;
40154;SDS011;25875;48.202;16.334;2023-06-19T12:21:48;6.65;;;5.95;;
40154;SDS011;25875;48.202;16.334;2023-06-19T12:24:15;8.32;;;6.25;;
40154;SDS011;25875;48.202;16.334;2023-06-19T12:26:42;6.55;;;5.82;;
40154;SDS011;25875;48.202;16.334;2023-06-19T12:29:09;7.88;;;5.25;;
40154;SDS011;25875;48.202;16.334;2023-06-19T12:31:35;9.73;;;6.00;;
40154;SDS011;25875;48.202;16.334;2023-06-19T12:34:04;9.13;;;6.55;;
40154;SDS011;25875;48.202;16.334;2023-06-19T12:36:31;8.27;;;5.80;;
40154;SDS011;25875;48.202;16.334;2023-06-19T12:38:58;7.78;;;6.43;;
40154;SDS011;25875;48.202;16.334;2023-06-19T12:41:25;6.78;;;6.07;;
40154;SDS011;25875;48.202;16.334;2023-06-19T12:43:52;10.98;;;6.10;;
40154;SDS011;25875;48.202;16.334;2023-06-19T12:46:19;6.38;;;5.65;;
40154;SDS011;25875;48.202;16.334;2023-06-19T12:48:46;6.40;;;5.72;;
40154;SDS011;25875;48.202;16.334;2023-06-19T12:51:17;7.40;;;5.97;;
40154;SDS011;25875;48.202;16.334;2023-06-19T12:53:44;7.18;;;5.95;;
40154;SDS011;25875;48.202;16.334;2023-06-19T12:56:10;6.70;;;6.03;;
40154;SDS011;25875;48.202;16.334;2023-06-19T12:58:37;7.45;;;5.82;;
40154;SDS011;25875;48.202;16.334;2023-06-19T13:01:04;6.50;;;4.93;;
40154;SDS011;25875;48.202;16.334;2023-06-19T13:03:31;6.25;;;5.65;;
40154;SDS011;25875;48.202;16.334;2023-06-19T13:05:57;6.65;;;6.05;;
40154;SDS011;25875;48.202;16.334;2023-06-19T13:08:25;6.70;;;6.03;;
40154;SDS011;25875;48.202;16.334;2023-06-19T13:10:52;6.82;;;5.65;;
40154;SDS011;25875;48.202;16.334;2023-06-19T13:13:19;7.28;;;5.72;;
40154;SDS011;25875;48.202;16.334;2023-06-19T13:15:45;8.25;;;5.90;;
40154;SDS011;25875;48.202;16.334;2023-06-19T13:18:12;6.95;;;6.25;;
40154;SDS011;25875;48.202;16.334;2023-06-19T13:20:39;7.47;;;5.68;;
40154;SDS011;25875;48.202;16.334;2023-06-19T13:23:05;8.52;;;5.97;;
40154;SDS011;25875;48.202;16.334;2023-06-19T13:25:33;7.40;;;6.65;;
40154;SDS011;25875;48.202;16.334;2023-06-19T13:28:00;6.03;;;5.43;;
40154;SDS011;25875;48.202;16.334;2023-06-19T13:30:27;8.00;;;5.97;;
40154;SDS011;25875;48.202;16.334;2023-06-19T13:32:54;6.90;;;6.20;;
40154;SDS011;25875;48.202;16.334;2023-06-19T13:35:21;8.75;;;6.45;;
40154;SDS011;25875;48.202;16.334;2023-06-19T13:37:47;7.65;;;6.50;;
40154;SDS011;25875;48.202;16.334;2023-06-19T13:40:14;6.95;;;6.13;;
40154;SDS011;25875;48.202;16.334;2023-06-19T13:42:42;6.88;;;6.18;;
40154;SDS011;25875;48.202;16.334;2023-06-19T13:45:09;7.55;;;6.38;;
40154;SDS011;25875;48.202;16.334;2023-06-19T13:47:36;6.85;;;6.15;;
40154;SDS011;25875;48.202;16.334;2023-06-19T13:50:03;6.90;;;5.95;;
40154;SDS011;25875;48.202;16.334;2023-06-19T13:52:31;7.65;;;6.82;;
40154;SDS011;25875;48.202;16.334;2023-06-19T13:54:57;7.00;;;5.53;;
40154;SDS011;25875;48.202;16.334;2023-06-19T13:57:24;9.35;;;5.85;;
40154;SDS011;25875;48.202;16.334;2023-06-19T13:59:52;6.00;;;5.47;;
40154;SDS011;25875;48.202;16.334;2023-06-19T14:02:19;8.27;;;6.63;;
40154;SDS011;25875;48.202;16.334;2023-06-19T14:04:46;8.27;;;6.30;;
40154;SDS011;25875;48.202;16.334;2023-06-19T14:07:12;9.82;;;7.05;;
40154;SDS011;25875;48.202;16.334;2023-06-19T14:09:41;10.98;;;6.45;;
40154;SDS011;25875;48.202;16.334;2023-06-19T14:12:08;9.07;;;6.82;;
40154;SDS011;25875;48.202;16.334;2023-06-19T14:14:35;18.50;;;16.58;;
40154;SDS011;25875;48.202;16.334;2023-06-19T14:17:04;24.75;;;22.25;;
40154;SDS011;25875;48.202;16.334;2023-06-19T14:19:31;23.90;;;21.60;;
40154;SDS011;25875;48.202;16.334;2023-06-19T14:21:58;24.10;;;21.80;;
40154;SDS011;25875;48.202;16.334;2023-06-19T14:24:24;18.25;;;12.82;;
40154;SDS011;25875;48.202;16.334;2023-06-19T14:26:51;10.55;;;9.45;;
40154;SDS011;25875;48.202;16.334;2023-06-19T14:29:18;8.82;;;7.35;;